createdAt,value
2018-08-04T00:01:00.200Z,99.90
2018-08-04T00:03:34.405Z,99.90
2018-08-04T00:06:08.745Z,99.90
2018-08-04T00:11:17.508Z,99.90
2018-08-04T00:13:51.909Z,99.90
2018-08-04T00:16:26.193Z,99.90
2018-08-04T00:19:00.606Z,99.90
2018-08-04T00:21:35.072Z,99.90
2018-08-04T00:24:09.532Z,99.90
2018-08-04T00:26:43.886Z,99.90
2018-08-04T00:29:18.207Z,99.90
2018-08-04T00:31:52.583Z,99.90
2018-08-04T00:34:26.848Z,99.90
2018-08-04T00:37:01.195Z,99.90
2018-08-04T00:39:35.683Z,99.90
2018-08-04T00:42:10.091Z,99.90
2018-08-04T00:44:44.391Z,99.90
2018-08-04T00:47:18.692Z,99.90
2018-08-04T00:49:53.087Z,99.90
2018-08-04T00:52:27.303Z,99.90
2018-08-04T00:55:01.677Z,99.90
2018-08-04T00:57:36.145Z,99.90
2018-08-04T01:00:10.425Z,99.90
2018-08-04T01:02:44.810Z,99.90
2018-08-04T01:05:19.306Z,99.90
2018-08-04T01:07:53.706Z,99.90
2018-08-04T01:10:27.934Z,99.90
2018-08-04T01:13:02.297Z,99.90
2018-08-04T01:15:36.718Z,99.90
2018-08-04T01:18:11.150Z,99.90
2018-08-04T01:20:45.475Z,99.90
2018-08-04T01:23:19.846Z,99.90
2018-08-04T01:25:54.139Z,99.90
2018-08-04T01:28:28.490Z,99.90
2018-08-04T01:31:02.934Z,99.90
2018-08-04T01:33:37.245Z,99.90
2018-08-04T01:36:11.617Z,99.90
2018-08-04T01:38:46.033Z,99.90
2018-08-04T01:41:20.487Z,99.90
2018-08-04T01:43:54.927Z,99.90
2018-08-04T01:46:29.462Z,99.90
2018-08-04T01:49:04.031Z,99.90
2018-08-04T01:51:38.471Z,99.90
2018-08-04T01:54:12.865Z,99.90
2018-08-04T01:56:47.281Z,99.90
2018-08-04T01:59:21.593Z,99.90
2018-08-04T02:01:55.976Z,99.90
2018-08-04T02:04:30.327Z,99.90
2018-08-04T02:07:04.718Z,99.90
2018-08-04T02:09:39.091Z,99.90
2018-08-04T02:12:13.623Z,99.90
2018-08-04T02:14:48.078Z,99.90
2018-08-04T02:17:22.391Z,99.90
2018-08-04T02:19:56.698Z,99.90
2018-08-04T02:22:31.047Z,99.90
2018-08-04T02:25:05.958Z,99.90
2018-08-04T02:27:40.244Z,99.90
2018-08-04T02:30:14.519Z,99.90
2018-08-04T02:32:48.845Z,99.90
2018-08-04T02:35:23.252Z,99.90
2018-08-04T02:37:57.622Z,99.90
2018-08-04T02:40:32.090Z,99.90
2018-08-04T02:43:06.384Z,99.90
2018-08-04T02:45:40.694Z,99.90
2018-08-04T02:48:15.180Z,99.90
2018-08-04T02:53:23.717Z,99.90
2018-08-04T02:55:58.139Z,99.90
2018-08-04T02:58:32.678Z,99.90
2018-08-04T03:01:07.008Z,99.90
2018-08-04T03:03:41.333Z,99.90
2018-08-04T03:06:15.731Z,99.90
2018-08-04T03:08:50.080Z,99.90
2018-08-04T03:11:24.454Z,99.90
2018-08-04T03:13:58.668Z,99.90
2018-08-04T03:16:33.099Z,99.90
2018-08-04T03:19:07.417Z,99.90
2018-08-04T03:21:41.894Z,99.90
2018-08-04T03:24:16.213Z,99.90
2018-08-04T03:26:50.490Z,99.90
2018-08-04T03:29:24.795Z,99.90
2018-08-04T03:31:59.073Z,99.90
2018-08-04T03:34:33.484Z,99.90
2018-08-04T03:37:07.990Z,99.90
2018-08-04T03:39:42.550Z,99.90
2018-08-04T03:42:16.803Z,99.90
2018-08-04T03:44:51.199Z,99.90
2018-08-04T03:47:25.649Z,99.90
2018-08-04T03:49:59.994Z,99.90
2018-08-04T03:52:34.244Z,99.90
2018-08-04T03:55:08.591Z,99.90
2018-08-04T03:57:42.878Z,99.90
2018-08-04T04:00:17.190Z,99.90
2018-08-04T04:02:51.457Z,99.90
2018-08-04T04:05:25.934Z,99.90
2018-08-04T04:08:00.231Z,99.90
2018-08-04T04:10:34.685Z,99.90
2018-08-04T04:13:08.938Z,99.90
2018-08-04T04:15:43.330Z,99.90
2018-08-04T04:18:17.607Z,99.90
2018-08-04T04:20:52.049Z,99.90
2018-08-04T04:23:26.325Z,99.90
2018-08-04T04:26:00.746Z,99.90
2018-08-04T04:28:35.193Z,99.90
2018-08-04T04:31:09.453Z,99.90
2018-08-04T04:33:43.781Z,99.90
2018-08-04T04:36:18.330Z,99.90
2018-08-04T04:38:52.695Z,99.90
2018-08-04T04:44:01.600Z,99.90
2018-08-04T04:46:38.362Z,99.90
2018-08-04T04:49:13.200Z,99.90
2018-08-04T04:51:47.523Z,99.90
2018-08-04T04:54:21.883Z,99.90
2018-08-04T04:59:30.506Z,99.90
2018-08-04T05:02:05.045Z,99.90
2018-08-04T05:04:39.343Z,99.90
2018-08-04T05:07:13.712Z,99.90
2018-08-04T05:09:48.225Z,99.90
2018-08-04T05:12:22.511Z,99.90
2018-08-04T05:14:56.787Z,99.90
2018-08-04T05:17:31.071Z,99.90
2018-08-04T05:20:06.414Z,99.90
2018-08-04T05:22:40.774Z,99.90
2018-08-04T05:25:15.282Z,99.90
2018-08-04T05:27:49.538Z,99.90
2018-08-04T05:30:23.931Z,99.90
2018-08-04T05:32:58.189Z,99.90
2018-08-04T05:35:32.627Z,99.90
2018-08-04T05:38:06.934Z,99.90
2018-08-04T05:40:41.405Z,99.90
2018-08-04T05:43:15.707Z,99.90
2018-08-04T05:45:50.042Z,99.90
2018-08-04T05:48:24.478Z,99.90
2018-08-04T05:50:58.914Z,99.90
2018-08-04T05:53:33.372Z,99.90
2018-08-04T05:56:07.635Z,99.90
2018-08-04T05:58:42.066Z,99.90
2018-08-04T06:01:16.497Z,99.90
2018-08-04T06:03:50.866Z,99.90
2018-08-04T06:06:25.265Z,99.90
2018-08-04T06:08:59.740Z,99.90
2018-08-04T06:11:34.050Z,99.90
2018-08-04T06:14:08.371Z,99.90
2018-08-04T06:16:42.905Z,99.90
2018-08-04T06:19:17.166Z,99.90
2018-08-04T06:21:51.555Z,99.90
2018-08-04T06:24:25.921Z,99.90
2018-08-04T06:27:00.285Z,99.90
2018-08-04T06:29:34.631Z,99.90
2018-08-04T06:32:09.295Z,99.90
2018-08-04T06:34:43.615Z,99.90
2018-08-04T06:37:17.958Z,99.90
2018-08-04T06:39:52.675Z,99.90
2018-08-04T06:42:27.087Z,99.90
2018-08-04T06:45:01.427Z,99.90
2018-08-04T06:47:35.697Z,99.90
2018-08-04T06:50:10.090Z,99.90
2018-08-04T06:52:44.486Z,99.90
2018-08-04T06:55:18.965Z,99.90
2018-08-04T06:57:53.235Z,99.90
2018-08-04T07:00:27.582Z,99.90
2018-08-04T07:03:01.880Z,99.90
2018-08-04T07:05:36.305Z,99.90
2018-08-04T07:08:10.876Z,99.90
2018-08-04T07:10:45.286Z,99.90
2018-08-04T07:13:19.735Z,99.90
2018-08-04T07:15:54.261Z,99.90
2018-08-04T07:18:28.585Z,99.90
2018-08-04T07:21:03.035Z,99.90
2018-08-04T07:23:37.342Z,99.90
2018-08-04T07:26:11.773Z,99.90
2018-08-04T07:28:46.240Z,99.90
2018-08-04T07:31:20.556Z,99.90
2018-08-04T07:33:54.978Z,99.90
2018-08-04T07:36:29.205Z,99.90
2018-08-04T07:39:04.624Z,99.90
2018-08-04T07:41:39.518Z,99.90
2018-08-04T07:44:13.915Z,99.90
2018-08-04T07:46:48.402Z,99.90
2018-08-04T07:49:22.917Z,99.90
2018-08-04T07:51:57.215Z,99.90
2018-08-04T07:54:31.611Z,99.90
2018-08-04T07:57:05.959Z,99.90
2018-08-04T07:59:40.275Z,99.90
2018-08-04T08:02:14.581Z,99.90
2018-08-04T08:04:49.014Z,99.90
2018-08-04T08:07:24.966Z,99.90
2018-08-04T08:09:59.385Z,99.90
2018-08-04T08:12:33.820Z,99.90
2018-08-04T08:15:08.721Z,99.90
2018-08-04T08:17:42.997Z,99.90
2018-08-04T08:20:17.427Z,99.90
2018-08-04T08:22:51.801Z,99.90
2018-08-04T08:25:26.185Z,99.90
2018-08-04T08:28:00.407Z,99.80
2018-08-04T08:30:34.799Z,98.70
2018-08-04T08:33:09.067Z,98.50
2018-08-04T08:35:43.557Z,98.20
2018-08-04T08:38:17.985Z,98.40
2018-08-04T08:40:52.323Z,97.90
2018-08-04T08:43:27.030Z,98.00
2018-08-04T08:46:01.411Z,97.40
2018-08-04T08:48:35.705Z,97.90
2018-08-04T08:51:10.037Z,97.10
2018-08-04T08:53:44.526Z,96.60
2018-08-04T08:56:18.894Z,96.00
2018-08-04T08:58:53.167Z,96.20
2018-08-04T09:01:27.670Z,96.20
2018-08-04T09:04:01.998Z,96.00
2018-08-04T09:06:36.335Z,94.60
2018-08-04T09:09:11.225Z,94.80
2018-08-04T09:14:19.830Z,93.70
2018-08-04T09:16:54.172Z,92.90
2018-08-04T09:19:28.503Z,92.20
2018-08-04T09:22:02.807Z,92.20
2018-08-04T09:24:37.141Z,92.90
2018-08-04T09:27:11.498Z,92.30
2018-08-04T09:29:46.001Z,91.20
2018-08-04T09:32:20.429Z,89.60
2018-08-04T09:34:54.729Z,90.70
2018-08-04T09:37:29.048Z,91.60
2018-08-04T09:40:03.387Z,90.10
2018-08-04T09:42:37.894Z,90.30
2018-08-04T09:45:12.321Z,90.60
2018-08-04T09:47:47.981Z,90.00
2018-08-04T09:50:22.399Z,88.70
2018-08-04T09:52:56.790Z,87.00
2018-08-04T09:55:31.207Z,87.60
2018-08-04T09:58:05.548Z,83.90
2018-08-04T10:00:45.367Z,80.70
2018-08-04T10:03:19.712Z,81.90
2018-08-04T10:05:54.076Z,83.30
2018-08-04T10:08:28.414Z,86.00
2018-08-04T10:11:02.726Z,86.40
2018-08-04T10:13:37.036Z,84.60
2018-08-04T10:16:11.431Z,85.90
2018-08-04T10:18:45.766Z,83.20
2018-08-04T10:21:20.343Z,83.60
2018-08-04T10:23:54.810Z,84.20
2018-08-04T10:26:29.253Z,84.30
2018-08-04T10:29:03.694Z,83.80
2018-08-04T10:31:38.176Z,81.40
2018-08-04T10:34:12.567Z,82.30
2018-08-04T10:36:46.980Z,82.50
2018-08-04T10:39:21.458Z,79.00
2018-08-04T10:41:55.961Z,79.10
2018-08-04T10:44:30.446Z,78.70
2018-08-04T10:47:04.914Z,78.80
2018-08-04T10:49:39.343Z,78.00
2018-08-04T10:52:13.765Z,77.40
2018-08-04T10:54:48.295Z,79.80
2018-08-04T10:57:22.813Z,78.70
2018-08-04T10:59:57.147Z,76.10
2018-08-04T11:02:31.489Z,75.70
2018-08-04T11:05:06.090Z,75.20
2018-08-04T11:07:40.583Z,71.70
2018-08-04T11:10:15.178Z,70.40
2018-08-04T11:12:49.583Z,69.90
2018-08-04T11:15:24.111Z,70.20
2018-08-04T11:17:58.433Z,70.70
2018-08-04T11:20:32.699Z,69.10
2018-08-04T11:23:07.093Z,68.50
2018-08-04T11:25:41.407Z,67.30
2018-08-04T11:28:15.795Z,67.70
2018-08-04T11:30:50.251Z,65.10
2018-08-04T11:33:24.589Z,65.40
2018-08-04T11:35:59.057Z,64.30
2018-08-04T11:38:33.360Z,64.40
2018-08-04T11:41:07.847Z,63.80
2018-08-04T11:43:42.195Z,63.40
2018-08-04T11:46:16.506Z,61.20
2018-08-04T11:48:50.799Z,62.60
2018-08-04T11:51:25.212Z,63.60
2018-08-04T11:53:59.577Z,61.90
2018-08-04T11:56:33.946Z,60.00
2018-08-04T11:59:08.538Z,58.10
2018-08-04T12:01:42.780Z,59.10
2018-08-04T12:04:17.290Z,55.40
2018-08-04T12:06:51.764Z,57.60
2018-08-04T12:09:26.355Z,55.30
2018-08-04T12:12:00.852Z,54.40
2018-08-04T12:14:35.343Z,53.40
2018-08-04T12:17:09.749Z,51.10
2018-08-04T12:19:44.077Z,51.50
2018-08-04T12:22:18.522Z,52.70
2018-08-04T12:24:53.190Z,53.00
2018-08-04T12:27:27.517Z,54.40
2018-08-04T12:30:01.818Z,53.00
2018-08-04T12:32:36.647Z,52.50
2018-08-04T12:35:10.991Z,53.20
2018-08-04T12:37:45.420Z,52.00
2018-08-04T12:40:19.922Z,53.40
2018-08-04T12:42:54.315Z,52.90
2018-08-04T12:45:28.929Z,53.70
2018-08-04T12:48:03.396Z,51.70
2018-08-04T12:50:37.750Z,54.00
2018-08-04T12:53:12.193Z,54.20
2018-08-04T12:55:46.691Z,52.60
2018-08-04T12:58:21.330Z,52.30
2018-08-04T13:00:55.770Z,51.00
2018-08-04T13:03:30.211Z,51.10
2018-08-04T13:06:04.510Z,52.80
2018-08-04T13:08:39.074Z,52.20
2018-08-04T13:11:13.483Z,52.40
2018-08-04T13:13:47.917Z,51.90
2018-08-04T13:18:56.426Z,52.20
2018-08-04T13:21:31.235Z,50.20
2018-08-04T13:24:05.738Z,52.90
2018-08-04T13:26:40.332Z,51.70
2018-08-04T13:29:14.714Z,52.90
2018-08-04T13:31:49.068Z,51.20
2018-08-04T13:34:23.533Z,52.90
2018-08-04T13:36:57.984Z,52.50
2018-08-04T13:39:32.301Z,52.00
2018-08-04T13:42:06.979Z,51.40
2018-08-04T13:44:41.409Z,51.80
2018-08-04T13:47:15.886Z,51.40
2018-08-04T13:49:50.170Z,50.40
2018-08-04T13:52:24.615Z,51.20
2018-08-04T13:54:58.897Z,50.00
2018-08-04T13:57:33.155Z,49.60
2018-08-04T14:00:07.554Z,50.60
2018-08-04T14:02:42.000Z,49.00
2018-08-04T14:05:16.468Z,48.50
2018-08-04T14:07:50.722Z,48.70
2018-08-04T14:10:25.308Z,49.00
2018-08-04T14:12:59.666Z,49.00
2018-08-04T14:18:08.182Z,49.50
2018-08-04T14:20:42.562Z,49.20
2018-08-04T14:23:16.818Z,49.50
2018-08-04T14:25:51.401Z,48.80
2018-08-04T14:28:25.942Z,48.40
2018-08-04T14:31:00.368Z,46.40
2018-08-04T14:33:34.776Z,46.10
2018-08-04T14:36:09.269Z,47.00
2018-08-04T14:38:43.719Z,46.80
2018-08-04T14:41:18.032Z,46.20
2018-08-04T14:43:52.422Z,45.40
2018-08-04T14:46:26.717Z,44.30
2018-08-04T14:49:01.115Z,45.50
2018-08-04T14:54:09.863Z,44.10
2018-08-04T14:56:44.450Z,43.40
2018-08-04T14:59:18.799Z,42.30
2018-08-04T15:01:53.164Z,42.90
2018-08-04T15:04:27.509Z,44.20
2018-08-04T15:07:01.916Z,44.70
2018-08-04T15:09:36.457Z,43.70
2018-08-04T15:12:10.763Z,44.30
2018-08-04T15:14:45.098Z,44.70
2018-08-04T15:17:19.686Z,45.00
2018-08-04T15:19:53.964Z,44.60
2018-08-04T15:25:02.503Z,45.00
2018-08-04T15:27:36.762Z,44.50
2018-08-04T15:30:10.994Z,45.00
2018-08-04T15:32:45.258Z,45.20
2018-08-04T15:35:19.675Z,45.80
2018-08-04T15:37:54.004Z,44.80
2018-08-04T15:40:28.262Z,43.90
2018-08-04T15:43:02.666Z,43.80
2018-08-04T15:45:36.915Z,44.00
2018-08-04T15:48:11.358Z,43.60
2018-08-04T15:50:45.682Z,44.40
2018-08-04T15:53:19.927Z,45.00
2018-08-04T15:55:54.259Z,44.10
2018-08-04T15:58:28.548Z,44.40
2018-08-04T16:01:03.028Z,44.30
2018-08-04T16:03:37.513Z,44.70
2018-08-04T16:06:11.955Z,45.10
2018-08-04T16:08:46.276Z,45.00
2018-08-04T16:11:20.693Z,45.00
2018-08-04T16:13:55.232Z,45.70
2018-08-04T16:16:29.866Z,45.70
2018-08-04T16:19:04.392Z,45.80
2018-08-04T16:21:38.687Z,44.60
2018-08-04T16:24:13.267Z,44.90
2018-08-04T16:26:47.736Z,44.70
2018-08-04T16:29:22.078Z,45.20
2018-08-04T16:31:57.059Z,44.60
2018-08-04T16:34:31.541Z,44.70
2018-08-04T16:37:05.938Z,43.40
2018-08-04T16:39:40.528Z,43.50
2018-08-04T16:42:14.900Z,41.70
2018-08-04T16:44:49.313Z,42.10
2018-08-04T16:47:23.607Z,42.50
2018-08-04T16:49:57.953Z,41.40
2018-08-04T16:52:32.299Z,42.40
2018-08-04T16:55:06.570Z,41.70
2018-08-04T16:57:40.892Z,41.30
2018-08-04T17:00:15.525Z,42.20
2018-08-04T17:02:49.830Z,41.90
2018-08-04T17:05:24.192Z,42.20
2018-08-04T17:07:58.560Z,42.20
2018-08-04T17:10:33.054Z,42.60
2018-08-04T17:15:41.859Z,43.20
2018-08-04T17:18:16.205Z,43.00
2018-08-04T17:20:50.588Z,42.80
2018-08-04T17:23:24.887Z,42.10
2018-08-04T17:25:59.230Z,41.60
2018-08-04T17:28:33.585Z,42.00
2018-08-04T17:31:08.003Z,42.10
2018-08-04T17:33:42.316Z,41.80
2018-08-04T17:36:16.781Z,42.20
2018-08-04T17:38:51.151Z,41.20
2018-08-04T17:41:25.573Z,42.30
2018-08-04T17:43:59.871Z,43.00
2018-08-04T17:46:34.537Z,43.70
2018-08-04T17:49:09.142Z,45.00
2018-08-04T17:51:43.750Z,45.30
2018-08-04T17:54:18.078Z,45.50
2018-08-04T17:56:52.378Z,46.70
2018-08-04T17:59:26.779Z,49.10
2018-08-04T18:02:01.260Z,51.70
2018-08-04T18:04:35.540Z,51.70
2018-08-04T18:07:09.961Z,52.50
2018-08-04T18:09:44.388Z,53.80
2018-08-04T18:12:18.938Z,54.50
2018-08-04T18:14:53.474Z,54.80
2018-08-04T18:17:28.108Z,55.40
2018-08-04T18:20:03.181Z,57.10
2018-08-04T18:22:38.806Z,58.00
2018-08-04T18:25:13.390Z,61.10
2018-08-04T18:27:50.173Z,62.40
2018-08-04T18:32:49.884Z,62.80
2018-08-04T18:35:24.975Z,63.30
2018-08-04T18:37:59.783Z,63.10
2018-08-04T18:40:33.993Z,63.70
2018-08-04T18:43:08.919Z,64.50
2018-08-04T18:45:43.706Z,65.00
2018-08-04T18:48:18.047Z,65.00
2018-08-04T18:50:55.794Z,63.50
2018-08-04T18:53:30.481Z,64.60
2018-08-04T18:56:16.259Z,67.20
2018-08-04T18:59:00.528Z,69.20
2018-08-04T19:01:35.560Z,70.10
2018-08-04T19:04:10.226Z,70.30
2018-08-04T19:06:45.797Z,72.20
2018-08-04T19:09:20.394Z,71.90
2018-08-04T19:11:55.261Z,72.10
2018-08-04T19:14:29.798Z,70.10
2018-08-04T19:17:04.666Z,71.40
2018-08-04T19:19:39.781Z,72.30
2018-08-04T19:22:15.684Z,73.00
2018-08-04T19:24:50.631Z,74.00
2018-08-04T19:27:25.365Z,74.40
2018-08-04T19:30:00.052Z,71.60
2018-08-04T19:32:34.684Z,69.50
2018-08-04T19:35:09.461Z,70.30
2018-08-04T19:37:44.105Z,69.60
2018-08-04T19:40:18.836Z,68.80
2018-08-04T19:42:53.343Z,68.90
2018-08-04T19:45:27.784Z,69.30
2018-08-04T19:48:02.265Z,77.60
2018-08-04T19:50:37.529Z,79.70
2018-08-04T19:53:12.346Z,80.50
2018-08-04T19:55:47.099Z,79.80
2018-08-04T19:58:21.887Z,78.70
2018-08-04T20:00:56.363Z,78.00
2018-08-04T20:03:30.991Z,77.20
2018-08-04T20:06:05.625Z,77.60
2018-08-04T20:08:39.960Z,78.60
2018-08-04T20:11:14.610Z,79.90
2018-08-04T20:13:49.261Z,80.10
2018-08-04T20:16:23.687Z,80.50
2018-08-04T20:18:58.105Z,79.40
2018-08-04T20:21:32.783Z,79.00
2018-08-04T20:24:07.598Z,79.20
2018-08-04T20:26:42.136Z,79.00
2018-08-04T20:29:16.583Z,79.40
2018-08-04T20:31:51.102Z,80.00
2018-08-04T20:34:25.722Z,80.20
2018-08-04T20:37:00.489Z,82.70
2018-08-04T20:39:34.951Z,83.70
2018-08-04T20:42:09.739Z,83.90
2018-08-04T20:44:44.567Z,83.30
2018-08-04T20:47:18.897Z,82.60
2018-08-04T20:52:28.573Z,83.40
2018-08-04T20:55:03.311Z,85.20
2018-08-04T20:57:37.955Z,87.80
2018-08-04T21:00:12.394Z,89.40
2018-08-04T21:02:46.942Z,89.70
2018-08-04T21:05:22.502Z,90.40
2018-08-04T21:07:57.131Z,90.50
2018-08-04T21:10:31.897Z,91.30
2018-08-04T21:13:06.550Z,91.30
2018-08-04T21:15:40.906Z,91.10
2018-08-04T21:18:15.697Z,91.00
2018-08-04T21:20:50.544Z,90.80
2018-08-04T21:23:25.161Z,91.30
2018-08-04T21:25:59.681Z,91.00
2018-08-04T21:28:34.426Z,91.00
2018-08-04T21:31:08.843Z,90.70
2018-08-04T21:36:18.173Z,91.90
2018-08-04T21:38:52.796Z,92.00
2018-08-04T21:41:27.744Z,91.80
2018-08-04T21:44:02.307Z,91.40
2018-08-04T21:46:41.850Z,91.20
2018-08-04T21:49:16.611Z,91.20
2018-08-04T21:51:51.674Z,91.20
2018-08-04T21:54:26.043Z,91.30
2018-08-04T21:59:34.564Z,91.50
2018-08-04T22:02:09.194Z,91.50
2018-08-04T22:04:43.345Z,91.50
2018-08-04T22:07:54.824Z,91.30
2018-08-04T22:10:29.269Z,91.40
2018-08-04T22:13:03.768Z,91.50
2018-08-04T22:15:38.110Z,91.40
2018-08-04T22:18:12.511Z,91.70
2018-08-04T22:20:47.001Z,91.80
2018-08-04T22:23:22.422Z,91.90
2018-08-04T22:25:56.693Z,92.00
2018-08-04T22:28:32.146Z,92.00
2018-08-04T22:31:06.538Z,92.10
2018-08-04T22:33:41.141Z,92.40
2018-08-04T22:36:15.898Z,92.70
2018-08-04T22:38:50.582Z,93.30
2018-08-04T22:41:25.378Z,93.90
2018-08-04T22:43:59.932Z,93.60
2018-08-04T22:46:34.717Z,93.80
2018-08-04T22:49:09.292Z,94.10
2018-08-04T22:51:43.808Z,94.10
2018-08-04T22:54:18.452Z,94.10
2018-08-04T22:56:52.982Z,94.30
2018-08-04T22:59:27.420Z,94.50
2018-08-04T23:02:02.089Z,94.90
2018-08-04T23:04:36.589Z,95.10
2018-08-04T23:07:11.108Z,95.20
2018-08-04T23:09:45.621Z,95.00
2018-08-04T23:12:20.301Z,95.30
2018-08-04T23:14:55.010Z,95.10
2018-08-04T23:17:29.665Z,95.20
2018-08-04T23:20:04.506Z,95.20
2018-08-04T23:22:39.304Z,95.40
2018-08-04T23:25:13.881Z,95.70
2018-08-04T23:27:49.218Z,95.60
2018-08-04T23:30:24.043Z,95.80
2018-08-04T23:32:58.706Z,96.00
2018-08-04T23:35:33.232Z,96.10
2018-08-04T23:38:07.904Z,96.50
2018-08-04T23:40:42.728Z,96.00
2018-08-04T23:43:17.610Z,96.00
2018-08-04T23:45:52.306Z,96.20
2018-08-04T23:48:26.985Z,96.90
2018-08-04T23:51:01.676Z,97.40
2018-08-04T23:53:36.457Z,97.90
2018-08-04T23:56:11.218Z,98.00
2018-08-04T23:58:45.886Z,98.20
